createdAt,value
2023-03-08T00:01:36.982Z,1.40
2023-03-08T00:04:04.048Z,1.30
2023-03-08T00:06:31.416Z,1.20
2023-03-08T00:09:00.341Z,1.30
2023-03-08T00:11:28.442Z,1.20
2023-03-08T00:13:55.777Z,1.20
2023-03-08T00:16:23.549Z,1.10
2023-03-08T00:18:50.546Z,1.10
2023-03-08T00:21:19.140Z,1.10
2023-03-08T00:23:46.534Z,1.10
2023-03-08T00:26:14.297Z,1.10
2023-03-08T00:28:41.600Z,1.10
2023-03-08T00:31:11.477Z,1.10
2023-03-08T00:33:39.125Z,1.10
2023-03-08T00:36:19.294Z,1.00
2023-03-08T00:38:47.486Z,0.90
2023-03-08T00:41:15.311Z,1.00
2023-03-08T00:43:42.529Z,1.00
2023-03-08T00:46:10.483Z,1.00
2023-03-08T00:48:37.423Z,1.10
2023-03-08T00:51:04.784Z,1.10
2023-03-08T00:53:31.792Z,1.00
2023-03-08T00:56:00.845Z,1.00
2023-03-08T00:58:29.490Z,1.00
2023-03-08T01:00:57.469Z,1.00
2023-03-08T01:03:25.008Z,1.00
2023-03-08T01:05:55.081Z,0.90
2023-03-08T01:08:25.057Z,1.00
2023-03-08T01:10:57.969Z,1.00
2023-03-08T01:13:34.645Z,1.00
2023-03-08T01:16:02.950Z,1.00
2023-03-08T01:18:30.005Z,0.90
2023-03-08T01:21:01.645Z,0.90
2023-03-08T01:23:28.797Z,0.80
2023-03-08T01:25:59.625Z,0.70
2023-03-08T01:28:26.632Z,0.60
2023-03-08T01:30:54.191Z,0.60
2023-03-08T01:33:21.637Z,0.60
2023-03-08T01:35:48.982Z,0.80
2023-03-08T01:38:15.988Z,0.80
2023-03-08T01:40:43.191Z,0.70
2023-03-08T01:43:24.938Z,0.70
2023-03-08T01:46:17.504Z,0.70
2023-03-08T01:48:50.926Z,0.70
2023-03-08T01:51:43.691Z,0.70
2023-03-08T01:54:17.790Z,0.60
2023-03-08T01:56:48.560Z,0.60
2023-03-08T01:59:16.177Z,0.50
2023-03-08T02:01:43.694Z,0.50
2023-03-08T02:04:11.412Z,0.50
2023-03-08T02:06:39.025Z,0.50
2023-03-08T02:09:07.060Z,0.50
2023-03-08T02:11:35.856Z,0.50
2023-03-08T02:14:03.253Z,0.50
2023-03-08T02:16:30.632Z,0.50
2023-03-08T02:19:00.320Z,0.60
2023-03-08T02:21:30.192Z,0.60
2023-03-08T02:24:05.353Z,0.50
2023-03-08T02:26:35.077Z,0.60
2023-03-08T02:29:02.095Z,0.60
2023-03-08T02:31:29.376Z,0.50
2023-03-08T02:33:56.275Z,0.50
2023-03-08T02:36:23.496Z,0.50
2023-03-08T02:38:50.464Z,0.50
2023-03-08T02:41:17.771Z,0.50
2023-03-08T02:43:44.714Z,0.50
2023-03-08T02:46:13.121Z,0.50
2023-03-08T02:48:40.170Z,0.60
2023-03-08T02:51:07.565Z,0.60
2023-03-08T02:53:34.494Z,0.80
2023-03-08T02:56:01.758Z,0.70
2023-03-08T02:58:28.715Z,0.60
2023-03-08T03:00:56.349Z,0.70
2023-03-08T03:03:23.348Z,0.70
2023-03-08T03:05:50.540Z,0.60
2023-03-08T03:08:17.549Z,0.60
2023-03-08T03:10:44.840Z,0.60
2023-03-08T03:13:11.789Z,0.70
2023-03-08T03:15:39.728Z,0.70
2023-03-08T03:18:06.830Z,0.70
2023-03-08T03:20:34.206Z,0.70
2023-03-08T03:23:01.174Z,0.70
2023-03-08T03:25:28.441Z,0.70
2023-03-08T03:27:56.605Z,0.80
2023-03-08T03:30:23.901Z,0.80
2023-03-08T03:32:50.871Z,0.80
2023-03-08T03:35:18.262Z,0.90
2023-03-08T03:37:45.217Z,0.90
2023-03-08T03:40:14.182Z,0.90
2023-03-08T03:42:41.205Z,0.90
2023-03-08T03:45:08.857Z,0.90
2023-03-08T03:47:35.827Z,0.90
2023-03-08T03:50:03.147Z,0.90
2023-03-08T03:52:30.094Z,1.00
2023-03-08T03:54:57.278Z,1.00
2023-03-08T03:57:24.231Z,1.00
2023-03-08T03:59:51.660Z,0.90
2023-03-08T04:02:18.588Z,1.00
2023-03-08T04:04:50.602Z,0.90
2023-03-08T04:07:17.543Z,0.90
2023-03-08T04:09:45.158Z,1.00
2023-03-08T04:12:12.082Z,0.90
2023-03-08T04:14:40.424Z,1.00
2023-03-08T04:17:08.075Z,1.00
2023-03-08T04:19:35.329Z,1.00
2023-03-08T04:22:02.334Z,1.00
2023-03-08T04:24:29.525Z,0.90
2023-03-08T04:26:56.473Z,0.90
2023-03-08T04:29:23.749Z,1.00
2023-03-08T04:31:50.712Z,1.00
2023-03-08T04:34:17.970Z,1.00
2023-03-08T04:36:44.905Z,1.00
2023-03-08T04:39:12.112Z,1.00
2023-03-08T04:41:39.053Z,0.90
2023-03-08T04:44:06.247Z,0.90
2023-03-08T04:46:33.341Z,0.90
2023-03-08T04:49:00.615Z,0.90
2023-03-08T04:51:27.646Z,0.80
2023-03-08T04:53:55.207Z,0.80
2023-03-08T04:56:22.376Z,0.90
2023-03-08T04:58:49.812Z,0.90
2023-03-08T05:01:23.066Z,0.90
2023-03-08T05:03:52.530Z,1.00
2023-03-08T05:06:21.354Z,1.00
2023-03-08T05:08:48.743Z,0.90
2023-03-08T05:11:21.693Z,0.90
2023-03-08T05:13:49.260Z,0.90
2023-03-08T05:16:16.655Z,1.00
2023-03-08T05:18:44.038Z,1.00
2023-03-08T05:21:22.091Z,1.10
2023-03-08T05:23:49.421Z,1.00
2023-03-08T05:26:17.761Z,1.10
2023-03-08T05:28:45.217Z,1.20
2023-03-08T05:31:18.474Z,1.10
2023-03-08T05:33:48.039Z,1.20
2023-03-08T05:36:15.354Z,1.20
2023-03-08T05:38:43.049Z,1.10
2023-03-08T05:41:13.966Z,1.10
2023-03-08T05:43:41.638Z,1.10
2023-03-08T05:46:12.246Z,1.10
2023-03-08T05:48:40.040Z,1.10
2023-03-08T05:51:12.313Z,1.10
2023-03-08T05:53:40.129Z,1.00
2023-03-08T05:56:19.012Z,1.00
2023-03-08T05:58:48.131Z,1.00
2023-03-08T06:01:18.120Z,1.00
2023-03-08T06:03:47.533Z,1.00
2023-03-08T06:06:15.086Z,0.90
2023-03-08T06:08:43.000Z,1.00
2023-03-08T06:11:11.026Z,0.90
2023-03-08T06:13:38.279Z,0.90
2023-03-08T06:16:06.556Z,0.80
2023-03-08T06:18:36.033Z,1.00
2023-03-08T06:21:04.588Z,1.00
2023-03-08T06:23:33.368Z,1.00
2023-03-08T06:26:01.238Z,1.00
2023-03-08T06:28:29.680Z,1.10
2023-03-08T06:30:56.749Z,1.20
2023-03-08T06:33:29.558Z,1.40
2023-03-08T06:36:09.202Z,1.30
2023-03-08T06:38:39.077Z,1.60
2023-03-08T06:41:07.500Z,2.10
2023-03-08T06:43:35.838Z,2.40
2023-03-08T06:46:12.132Z,2.60
2023-03-08T06:48:40.833Z,2.80
2023-03-08T06:51:07.911Z,2.80
2023-03-08T06:53:38.693Z,2.70
2023-03-08T06:56:07.810Z,2.90
2023-03-08T06:58:36.597Z,2.70
2023-03-08T07:01:05.786Z,2.70
2023-03-08T07:03:33.923Z,3.00
2023-03-08T07:06:08.920Z,3.00
2023-03-08T07:08:38.225Z,3.40
2023-03-08T07:11:06.770Z,3.40
2023-03-08T07:13:34.451Z,3.10
2023-03-08T07:16:09.771Z,3.20
2023-03-08T07:18:37.216Z,3.20
2023-03-08T07:21:04.841Z,3.20
2023-03-08T07:23:32.143Z,3.10
2023-03-08T07:25:59.160Z,3.40
2023-03-08T07:28:26.513Z,3.40
2023-03-08T07:30:53.671Z,3.10
2023-03-08T07:33:23.193Z,3.10
2023-03-08T07:35:50.203Z,3.50
2023-03-08T07:38:17.753Z,3.70
2023-03-08T07:40:45.949Z,3.80
2023-03-08T07:43:13.657Z,3.80
2023-03-08T07:45:41.761Z,3.60
2023-03-08T07:48:09.093Z,3.30
2023-03-08T07:50:36.665Z,3.90
2023-03-08T07:53:04.598Z,4.50
2023-03-08T07:55:31.595Z,4.00
2023-03-08T07:57:59.109Z,4.00
2023-03-08T08:00:26.442Z,4.80
2023-03-08T08:02:54.201Z,4.70
2023-03-08T08:05:24.617Z,4.50
2023-03-08T08:07:52.127Z,3.90
2023-03-08T08:10:19.402Z,3.40
2023-03-08T08:12:46.733Z,3.10
2023-03-08T08:15:13.862Z,2.90
2023-03-08T08:17:41.515Z,3.10
2023-03-08T08:20:09.406Z,3.10
2023-03-08T08:22:37.164Z,3.30
2023-03-08T08:25:06.870Z,3.00
2023-03-08T08:27:35.250Z,3.40
2023-03-08T08:30:03.575Z,4.10
2023-03-08T08:32:30.825Z,4.20
2023-03-08T08:34:59.941Z,4.30
2023-03-08T08:37:27.831Z,4.00
2023-03-08T08:39:55.039Z,4.30
2023-03-08T08:42:22.496Z,3.80
2023-03-08T08:44:49.566Z,3.70
2023-03-08T08:47:16.878Z,3.70
2023-03-08T08:49:44.190Z,3.70
2023-03-08T08:52:11.537Z,3.60
2023-03-08T08:54:40.089Z,4.00
2023-03-08T08:57:07.510Z,3.50
2023-03-08T08:59:34.736Z,3.90
2023-03-08T09:02:02.387Z,4.30
2023-03-08T09:04:29.637Z,3.90
2023-03-08T09:06:57.169Z,3.90
2023-03-08T09:09:24.217Z,4.20
2023-03-08T09:11:55.409Z,4.90
2023-03-08T09:14:23.075Z,4.80
2023-03-08T09:16:50.713Z,4.90
2023-03-08T09:19:17.945Z,4.80
2023-03-08T09:21:45.494Z,4.70
2023-03-08T09:24:13.291Z,4.70
2023-03-08T09:26:40.587Z,4.90
2023-03-08T09:29:07.980Z,4.60
2023-03-08T09:31:38.072Z,4.40
2023-03-08T09:34:09.198Z,4.00
2023-03-08T09:36:39.727Z,4.00
2023-03-08T09:39:09.054Z,4.10
2023-03-08T09:41:53.537Z,3.70
2023-03-08T09:44:43.912Z,3.80
2023-03-08T09:47:39.614Z,4.40
2023-03-08T09:50:13.374Z,4.50
2023-03-08T09:52:46.415Z,4.10
2023-03-08T09:55:30.739Z,3.80
2023-03-08T09:58:39.977Z,3.90
2023-03-08T10:01:21.727Z,3.50
2023-03-08T10:04:26.446Z,3.60
2023-03-08T10:07:24.389Z,3.50
2023-03-08T10:10:03.616Z,3.40
2023-03-08T10:12:36.262Z,3.30
2023-03-08T10:15:11.100Z,3.10
2023-03-08T10:18:00.406Z,3.10
2023-03-08T10:20:37.476Z,3.40
2023-03-08T10:23:15.797Z,3.80
2023-03-08T10:25:44.489Z,3.70
2023-03-08T10:28:16.175Z,3.40
2023-03-08T10:30:58.667Z,3.60
2023-03-08T10:33:33.252Z,3.30
2023-03-08T10:36:06.475Z,3.30
2023-03-08T10:38:37.021Z,3.60
2023-03-08T10:41:14.512Z,3.60
2023-03-08T10:43:51.484Z,3.70
2023-03-08T10:46:21.275Z,4.20
2023-03-08T10:48:49.042Z,5.00
2023-03-08T10:51:24.337Z,5.60
2023-03-08T10:53:56.922Z,5.50
2023-03-08T10:56:35.264Z,6.40
2023-03-08T10:59:04.269Z,6.40
2023-03-08T11:01:34.386Z,6.30
2023-03-08T11:04:13.788Z,6.50
2023-03-08T11:06:41.671Z,6.90
2023-03-08T11:09:32.083Z,5.80
2023-03-08T11:12:00.667Z,5.80
2023-03-08T11:14:32.652Z,6.60
2023-03-08T11:17:15.736Z,6.60
2023-03-08T11:20:13.879Z,6.30
2023-03-08T11:22:50.274Z,6.70
2023-03-08T11:25:36.363Z,6.40
2023-03-08T11:28:25.019Z,5.60
2023-03-08T11:31:15.148Z,5.30
2023-03-08T11:33:51.151Z,5.30
2023-03-08T11:36:41.170Z,5.10
2023-03-08T11:39:30.442Z,4.60
2023-03-08T11:42:14.329Z,4.50
2023-03-08T11:45:06.803Z,4.40
2023-03-08T11:47:54.250Z,5.20
2023-03-08T11:50:47.657Z,5.90
2023-03-08T11:53:39.656Z,5.70
2023-03-08T11:56:33.103Z,5.30
2023-03-08T11:59:07.048Z,5.50
2023-03-08T12:01:59.425Z,5.80
2023-03-08T12:05:09.609Z,5.50
2023-03-08T12:07:43.681Z,5.40
2023-03-08T12:10:19.575Z,5.30
2023-03-08T12:13:01.402Z,5.20
2023-03-08T12:15:47.284Z,5.40
2023-03-08T12:18:29.936Z,5.30
2023-03-08T12:21:28.672Z,5.40
2023-03-08T12:24:33.371Z,5.20
2023-03-08T12:27:07.684Z,5.30
2023-03-08T12:29:49.232Z,4.80
2023-03-08T12:32:17.603Z,4.60
2023-03-08T12:34:46.957Z,4.30
2023-03-08T12:37:28.302Z,4.20
2023-03-08T12:40:26.594Z,4.60
2023-03-08T12:43:05.829Z,5.30
2023-03-08T12:45:54.171Z,5.20
2023-03-08T12:48:45.099Z,5.00
2023-03-08T12:52:06.921Z,4.80
2023-03-08T12:54:59.440Z,4.50
2023-03-08T12:58:06.947Z,4.40
2023-03-08T13:00:37.167Z,4.90
2023-03-08T13:03:19.002Z,4.90
2023-03-08T13:06:06.217Z,4.70
2023-03-08T13:08:43.191Z,4.60
2023-03-08T13:11:13.918Z,4.80
2023-03-08T13:13:43.642Z,4.70
2023-03-08T13:16:37.090Z,4.60
2023-03-08T13:19:17.029Z,5.00
2023-03-08T13:21:49.526Z,5.10
2023-03-08T13:24:22.385Z,5.30
2023-03-08T13:26:58.599Z,5.50
2023-03-08T13:29:31.894Z,5.50
2023-03-08T13:32:16.034Z,5.70
2023-03-08T13:34:46.358Z,5.90
2023-03-08T13:37:26.080Z,6.10
2023-03-08T13:39:54.982Z,5.60
2023-03-08T13:42:24.928Z,5.50
2023-03-08T13:44:53.563Z,5.30
2023-03-08T13:47:35.110Z,5.30
2023-03-08T13:50:03.411Z,5.30
2023-03-08T13:52:37.169Z,5.60
2023-03-08T13:55:09.448Z,5.80
2023-03-08T13:57:40.084Z,5.80
2023-03-08T14:00:34.566Z,5.80
2023-03-08T14:03:06.685Z,5.70
2023-03-08T14:05:43.314Z,5.60
2023-03-08T14:08:24.398Z,5.20
2023-03-08T14:10:58.751Z,5.10
2023-03-08T14:13:46.415Z,5.00
2023-03-08T14:16:42.033Z,5.20
2023-03-08T14:19:14.429Z,5.10
2023-03-08T14:21:57.168Z,4.80
2023-03-08T14:24:35.831Z,4.50
2023-03-08T14:27:15.135Z,4.60
2023-03-08T14:29:44.562Z,4.70
2023-03-08T14:32:11.886Z,4.60
2023-03-08T14:34:47.711Z,4.60
2023-03-08T14:37:20.441Z,4.50
2023-03-08T14:39:49.668Z,4.50
2023-03-08T14:42:24.701Z,4.60
2023-03-08T14:44:58.245Z,4.70
2023-03-08T14:47:31.310Z,4.80
2023-03-08T14:50:03.626Z,4.70
2023-03-08T14:52:34.044Z,4.70
2023-03-08T14:55:03.296Z,4.70
2023-03-08T14:57:32.270Z,4.60
2023-03-08T15:00:14.512Z,4.60
2023-03-08T15:02:43.422Z,4.60
2023-03-08T15:05:28.415Z,4.60
2023-03-08T15:07:59.366Z,4.50
2023-03-08T15:10:30.549Z,4.50
2023-03-08T15:12:57.891Z,4.50
2023-03-08T15:15:25.717Z,4.40
2023-03-08T15:17:52.950Z,4.40
2023-03-08T15:20:20.866Z,4.30
2023-03-08T15:22:55.560Z,4.30
2023-03-08T15:25:29.322Z,4.20
2023-03-08T15:27:56.688Z,4.20
2023-03-08T15:30:27.012Z,4.20
2023-03-08T15:32:54.891Z,4.20
2023-03-08T15:35:23.206Z,4.20
2023-03-08T15:37:51.109Z,4.20
2023-03-08T15:40:22.582Z,4.20
2023-03-08T15:42:49.942Z,4.20
2023-03-08T15:45:17.402Z,4.20
2023-03-08T15:47:44.729Z,4.20
2023-03-08T15:50:15.700Z,4.20
2023-03-08T15:52:43.180Z,4.20
2023-03-08T15:55:12.437Z,4.20
2023-03-08T15:57:39.715Z,4.10
2023-03-08T16:00:09.287Z,4.00
2023-03-08T16:02:36.281Z,4.00
2023-03-08T16:05:08.697Z,4.00
2023-03-08T16:07:35.980Z,3.90
2023-03-08T16:10:04.720Z,3.90
2023-03-08T16:12:31.884Z,3.90
2023-03-08T16:14:59.302Z,3.90
2023-03-08T16:17:29.758Z,3.80
2023-03-08T16:19:57.431Z,3.80
2023-03-08T16:22:25.296Z,3.80
2023-03-08T16:24:53.605Z,3.70
2023-03-08T16:27:20.588Z,3.60
2023-03-08T16:29:54.040Z,3.70
2023-03-08T16:32:21.488Z,3.70
2023-03-08T16:34:51.025Z,3.60
2023-03-08T16:37:21.600Z,3.60
2023-03-08T16:39:49.762Z,3.60
2023-03-08T16:42:17.913Z,3.60
2023-03-08T16:44:50.620Z,3.60
2023-03-08T16:47:18.037Z,3.60
2023-03-08T16:49:45.403Z,3.50
2023-03-08T16:52:13.394Z,3.50
2023-03-08T16:54:40.831Z,3.40
2023-03-08T16:57:18.623Z,3.40
2023-03-08T16:59:47.267Z,3.40
2023-03-08T17:02:20.093Z,3.50
2023-03-08T17:04:48.742Z,3.50
2023-03-08T17:07:16.400Z,3.50
2023-03-08T17:09:43.769Z,3.50
2023-03-08T17:12:10.876Z,3.40
2023-03-08T17:14:38.145Z,3.30
2023-03-08T17:17:05.341Z,3.20
2023-03-08T17:19:32.665Z,3.20
2023-03-08T17:21:59.619Z,3.10
2023-03-08T17:24:28.269Z,3.00
2023-03-08T17:26:55.758Z,2.90
2023-03-08T17:29:23.368Z,2.80
2023-03-08T17:31:50.778Z,2.80
2023-03-08T17:34:20.773Z,2.80
2023-03-08T17:36:47.992Z,2.80
2023-03-08T17:39:15.774Z,2.70
2023-03-08T17:41:44.713Z,2.70
2023-03-08T17:44:12.506Z,2.70
2023-03-08T17:46:39.552Z,2.60
2023-03-08T17:49:07.170Z,2.60
2023-03-08T17:51:34.315Z,2.60
2023-03-08T17:54:02.262Z,2.60
2023-03-08T17:56:32.150Z,2.60
2023-03-08T17:59:01.364Z,2.50
2023-03-08T18:01:31.078Z,2.50
2023-03-08T18:03:59.224Z,2.60
2023-03-08T18:06:38.565Z,2.60
2023-03-08T18:09:14.861Z,2.50
2023-03-08T18:11:42.438Z,2.60
2023-03-08T18:14:13.100Z,2.50
2023-03-08T18:16:41.338Z,2.40
2023-03-08T18:19:10.140Z,2.40
2023-03-08T18:21:39.992Z,2.40
2023-03-08T18:24:11.781Z,2.40
2023-03-08T18:26:38.994Z,2.30
2023-03-08T18:29:06.373Z,2.30
2023-03-08T18:31:35.125Z,2.30
2023-03-08T18:34:02.933Z,2.20
2023-03-08T18:36:30.496Z,2.10
2023-03-08T18:38:57.898Z,2.00
2023-03-08T18:41:27.735Z,1.90
2023-03-08T18:43:56.037Z,1.90
2023-03-08T18:46:28.713Z,1.80
2023-03-08T18:49:02.290Z,1.80
2023-03-08T18:51:32.308Z,1.80
2023-03-08T18:54:00.665Z,1.70
2023-03-08T18:56:28.637Z,1.70
2023-03-08T18:59:01.372Z,1.70
2023-03-08T19:01:30.468Z,1.60
2023-03-08T19:04:04.059Z,1.50
2023-03-08T19:06:31.053Z,1.50
2023-03-08T19:08:58.587Z,1.50
2023-03-08T19:11:27.466Z,1.40
2023-03-08T19:13:54.804Z,1.40
2023-03-08T19:16:24.908Z,1.50
2023-03-08T19:18:59.537Z,1.50
2023-03-08T19:21:29.329Z,1.50
2023-03-08T19:23:57.156Z,1.50
2023-03-08T19:26:36.223Z,1.40
2023-03-08T19:29:08.535Z,1.50
2023-03-08T19:31:38.654Z,1.40
2023-03-08T19:34:06.721Z,1.40
2023-03-08T19:36:35.632Z,1.40
2023-03-08T19:39:05.357Z,1.30
2023-03-08T19:41:32.638Z,1.30
2023-03-08T19:44:00.397Z,1.40
2023-03-08T19:46:27.481Z,1.30
2023-03-08T19:48:55.429Z,1.40
2023-03-08T19:51:22.522Z,1.40
2023-03-08T19:53:49.910Z,1.40
2023-03-08T19:56:19.277Z,1.30
2023-03-08T19:58:48.495Z,1.30
2023-03-08T20:01:18.492Z,1.30
2023-03-08T20:03:46.251Z,1.30
2023-03-08T20:06:25.130Z,1.30
2023-03-08T20:08:53.314Z,1.30
2023-03-08T20:11:20.792Z,1.30
2023-03-08T20:13:48.011Z,1.30
2023-03-08T20:16:15.492Z,1.30
2023-03-08T20:18:42.882Z,1.20
2023-03-08T20:21:10.129Z,1.20
2023-03-08T20:23:37.527Z,1.30
2023-03-08T20:26:04.664Z,1.20
2023-03-08T20:28:31.905Z,1.20
2023-03-08T20:30:58.957Z,1.20
2023-03-08T20:33:26.282Z,1.20
2023-03-08T20:35:58.391Z,1.20
2023-03-08T20:38:26.570Z,1.20
2023-03-08T20:41:05.831Z,1.20
2023-03-08T20:43:33.935Z,1.20
2023-03-08T20:46:09.341Z,1.20
2023-03-08T20:48:38.461Z,1.20
2023-03-08T20:51:08.687Z,1.20
2023-03-08T20:53:36.286Z,1.10
2023-03-08T20:56:07.770Z,1.20
2023-03-08T20:58:35.137Z,1.20
2023-03-08T21:01:10.546Z,1.10
2023-03-08T21:03:38.233Z,1.10
2023-03-08T21:06:14.444Z,1.10
2023-03-08T21:08:41.823Z,1.10
2023-03-08T21:11:09.012Z,1.10
2023-03-08T21:13:36.359Z,1.10
2023-03-08T21:16:06.116Z,1.10
2023-03-08T21:18:33.375Z,1.10
2023-03-08T21:21:00.501Z,1.00
2023-03-08T21:23:29.381Z,1.00
2023-03-08T21:25:59.617Z,1.00
2023-03-08T21:28:27.222Z,1.00
2023-03-08T21:30:54.205Z,1.00
2023-03-08T21:33:21.544Z,1.00
2023-03-08T21:35:48.737Z,1.00
2023-03-08T21:38:16.077Z,1.00
2023-03-08T21:40:43.411Z,1.00
2023-03-08T21:43:10.773Z,1.00
2023-03-08T21:45:41.834Z,0.90
2023-03-08T21:48:09.897Z,0.90
2023-03-08T21:50:40.362Z,0.90
2023-03-08T21:53:08.331Z,0.90
2023-03-08T21:55:39.292Z,0.90
2023-03-08T21:58:07.495Z,0.90
2023-03-08T22:00:35.023Z,0.90
2023-03-08T22:03:02.290Z,0.80
2023-03-08T22:05:30.701Z,0.80
2023-03-08T22:07:57.966Z,0.80
2023-03-08T22:10:24.961Z,0.80
2023-03-08T22:12:52.180Z,0.80
2023-03-08T22:15:19.252Z,0.80
2023-03-08T22:17:46.536Z,0.80
2023-03-08T22:20:13.902Z,0.80
2023-03-08T22:22:41.541Z,0.80
2023-03-08T22:25:08.937Z,0.80
2023-03-08T22:27:36.335Z,0.80
2023-03-08T22:30:05.588Z,0.80
2023-03-08T22:32:32.868Z,0.80
2023-03-08T22:34:59.934Z,0.80
2023-03-08T22:37:27.116Z,0.80
2023-03-08T22:39:54.048Z,0.80
2023-03-08T22:42:21.292Z,0.80
2023-03-08T22:44:48.232Z,0.80
2023-03-08T22:47:15.513Z,0.80
2023-03-08T22:49:42.486Z,0.80
2023-03-08T22:52:09.928Z,0.80
2023-03-08T22:54:36.899Z,0.80
2023-03-08T22:57:04.334Z,0.80
2023-03-08T22:59:31.407Z,0.80
2023-03-08T23:01:58.716Z,0.80
2023-03-08T23:04:25.939Z,0.80
2023-03-08T23:06:53.514Z,0.80
2023-03-08T23:09:20.875Z,0.80
2023-03-08T23:11:48.445Z,0.80
2023-03-08T23:14:15.848Z,0.80
2023-03-08T23:16:46.143Z,0.90
2023-03-08T23:19:17.466Z,0.80
2023-03-08T23:21:45.206Z,0.80
2023-03-08T23:24:12.499Z,0.90
2023-03-08T23:26:40.028Z,0.90
2023-03-08T23:29:07.411Z,0.90
2023-03-08T23:31:37.375Z,0.90
2023-03-08T23:34:05.656Z,0.90
2023-03-08T23:36:33.975Z,0.90
2023-03-08T23:39:04.314Z,0.90
2023-03-08T23:41:32.230Z,0.90
2023-03-08T23:44:02.128Z,0.90
2023-03-08T23:46:29.949Z,0.80
2023-03-08T23:48:58.808Z,0.80
2023-03-08T23:51:30.324Z,0.80
2023-03-08T23:53:59.412Z,0.80
2023-03-08T23:56:37.565Z,0.90
2023-03-08T23:59:10.246Z,0.90
